Time;durP1;ratioP1;P1;durP2;ratioP2;P2;SDS_P1;SDS_P2;PMS_P1;PMS_P2;Temp;Humidity;BMP_temperature;BMP_pressure;BME280_temperature;BME280_humidity;BME280_pressure;Samples;Min_cycle;Max_cycle;Signal;HPM_P1;HPM_P2
2022/10/20 00:01:55;;;;;;;7.70;3.80;;;8.70;99.90;;;;;;5052177;28;20033;-69
2022/10/20 00:04:21;;;;;;;7.05;3.65;;;8.70;99.90;;;;;;5051753;28;20136;-69
2022/10/20 00:06:46;;;;;;;7.90;3.38;;;8.70;99.90;;;;;;5052017;28;20033;-69
2022/10/20 00:09:12;;;;;;;9.60;3.42;;;8.60;99.90;;;;;;5052320;28;20044;-69
2022/10/20 00:11:38;;;;;;;5.25;3.40;;;8.70;99.90;;;;;;5052141;28;20043;-69
2022/10/20 00:14:04;;;;;;;5.35;3.70;;;8.60;99.90;;;;;;5050284;28;20052;-69
2022/10/20 00:16:31;;;;;;;6.93;3.40;;;8.70;99.90;;;;;;5052123;28;20048;-69
2022/10/20 00:18:57;;;;;;;7.00;3.55;;;8.60;99.90;;;;;;5051896;28;20044;-69
2022/10/20 00:21:26;;;;;;;9.48;3.97;;;8.60;99.90;;;;;;5052159;28;20055;-69
2022/10/20 00:23:52;;;;;;;5.18;3.38;;;8.60;99.90;;;;;;5051405;28;20057;-69
2022/10/20 00:26:23;;;;;;;5.70;3.25;;;8.60;99.90;;;;;;5050702;28;20036;-69
2022/10/20 00:28:49;;;;;;;6.13;3.17;;;8.60;99.90;;;;;;5051720;28;20047;-69
2022/10/20 00:31:16;;;;;;;7.32;3.65;;;8.50;99.90;;;;;;5050832;28;20045;-69
2022/10/20 00:33:42;;;;;;;6.72;3.35;;;8.50;99.90;;;;;;5051286;28;20144;-70
2022/10/20 00:36:11;;;;;;;5.72;3.35;;;8.50;99.90;;;;;;5051728;28;20044;-69
2022/10/20 00:38:36;;;;;;;5.38;3.33;;;8.50;99.90;;;;;;5051759;28;20370;-69
2022/10/20 00:41:02;;;;;;;8.88;3.72;;;8.50;99.90;;;;;;5051624;28;20029;-69
2022/10/20 00:44:00;;;;;;;6.53;3.28;;;8.50;99.90;;;;;;5050225;28;20166;-69
2022/10/20 00:46:36;;;;;;;11.70;3.67;;;8.50;99.90;;;;;;5050158;28;20045;-69
2022/10/20 00:49:22;;;;;;;8.50;3.70;;;8.40;99.90;;;;;;5050209;28;20045;-69
2022/10/20 00:51:49;;;;;;;6.32;3.63;;;8.40;99.90;;;;;;5051464;28;20540;-69
2022/10/20 00:54:19;;;;;;;5.30;3.58;;;8.40;99.90;;;;;;5050022;28;20075;-69
2022/10/20 00:56:47;;;;;;;8.43;3.80;;;8.40;99.90;;;;;;5051591;28;20045;-69
2022/10/20 00:59:16;;;;;;;8.00;3.97;;;8.40;99.90;;;;;;5050447;28;20118;-69
2022/10/20 01:01:42;;;;;;;6.57;3.22;;;8.40;99.90;;;;;;5051449;28;20084;-69
2022/10/20 01:04:08;;;;;;;4.15;3.10;;;8.40;99.90;;;;;;5051041;28;20082;-69
2022/10/20 01:06:34;;;;;;;5.45;4.00;;;8.30;99.90;;;;;;5063969;28;20036;-69
2022/10/20 01:09:00;;;;;;;6.35;3.47;;;8.30;99.90;;;;;;5071301;28;20119;-69
2022/10/20 01:11:46;;;;;;;4.95;3.25;;;8.30;99.90;;;;;;5071157;28;20068;-69
2022/10/20 01:15:09;;;;;;;7.57;3.80;;;8.20;99.90;;;;;;5070985;28;20032;-69
2022/10/20 01:18:12;;;;;;;7.43;3.67;;;8.30;99.90;;;;;;5032028;28;20093;-69
2022/10/20 01:21:03;;;;;;;5.85;3.42;;;8.20;99.90;;;;;;5071396;28;20041;-69
2022/10/20 01:24:00;;;;;;;10.05;4.18;;;8.20;99.90;;;;;;5067337;28;20052;-69
2022/10/20 01:26:40;;;;;;;5.70;3.65;;;8.20;99.90;;;;;;5071397;28;20048;-69
2022/10/20 01:29:31;;;;;;;7.35;3.55;;;8.20;99.90;;;;;;5071296;28;20390;-69
2022/10/20 01:32:21;;;;;;;8.13;3.00;;;8.20;99.90;;;;;;5064272;28;20408;-69
2022/10/20 01:34:57;;;;;;;7.15;3.53;;;8.20;99.90;;;;;;5071054;28;20120;-69
2022/10/20 01:37:36;;;;;;;6.15;3.60;;;8.20;99.90;;;;;;5070973;28;20447;-69
2022/10/20 01:40:16;;;;;;;6.20;3.55;;;8.20;99.90;;;;;;5069808;28;20473;-69
2022/10/20 01:42:44;;;;;;;5.10;3.75;;;8.30;99.90;;;;;;5070905;28;20120;-69
2022/10/20 01:45:13;;;;;;;7.50;4.28;;;8.20;99.90;;;;;;5069733;28;20459;-69
2022/10/20 01:47:39;;;;;;;7.50;4.05;;;8.20;99.90;;;;;;5071223;28;20396;-69
2022/10/20 01:50:06;;;;;;;4.65;3.35;;;8.20;99.90;;;;;;5072261;28;20037;-69
2022/10/20 01:52:32;;;;;;;6.40;3.67;;;8.10;99.90;;;;;;5074624;28;20072;-69
2022/10/20 01:54:57;;;;;;;6.03;3.30;;;8.20;99.90;;;;;;5072876;28;20072;-69
2022/10/20 01:57:50;;;;;;;6.53;3.42;;;8.20;99.90;;;;;;5074490;28;20063;-69
2022/10/20 02:00:17;;;;;;;5.57;4.07;;;8.20;99.90;;;;;;5073052;28;20041;-69
2022/10/20 02:03:20;;;;;;;5.47;3.25;;;8.20;99.90;;;;;;5074454;28;20032;-69
2022/10/20 02:06:24;;;;;;;7.95;3.42;;;8.10;99.90;;;;;;5074249;28;20043;-68
2022/10/20 02:08:54;;;;;;;9.55;3.72;;;8.20;99.90;;;;;;5074682;28;20036;-69
2022/10/20 02:11:28;;;;;;;5.30;3.75;;;8.10;99.90;;;;;;5074097;28;20033;-69
2022/10/20 02:13:56;;;;;;;5.72;3.75;;;8.10;99.90;;;;;;5072914;28;20397;-69
2022/10/20 02:16:29;;;;;;;5.22;4.15;;;8.10;99.90;;;;;;5073996;28;20045;-69
2022/10/20 02:18:56;;;;;;;12.98;3.75;;;8.10;99.90;;;;;;5074340;28;20044;-69
2022/10/20 02:21:22;;;;;;;8.57;4.07;;;8.00;99.90;;;;;;5073894;28;20535;-69
2022/10/20 02:23:49;;;;;;;6.43;3.78;;;8.10;99.90;;;;;;5073686;28;20044;-69
2022/10/20 02:26:18;;;;;;;9.70;4.03;;;8.00;99.90;;;;;;5074076;28;20078;-69
2022/10/20 02:28:47;;;;;;;4.43;3.58;;;8.00;99.90;;;;;;5073954;28;20501;-69
2022/10/20 02:31:13;;;;;;;8.63;3.85;;;8.00;99.90;;;;;;5073933;28;20037;-69
2022/10/20 02:33:41;;;;;;;5.97;4.07;;;8.00;99.90;;;;;;5073871;28;20062;-69
2022/10/20 02:36:14;;;;;;;5.28;3.95;;;8.00;99.90;;;;;;5073704;28;20455;-69
2022/10/20 02:38:39;;;;;;;7.03;3.80;;;7.90;99.90;;;;;;5073779;28;20806;-69
2022/10/20 02:41:05;;;;;;;6.43;3.80;;;7.90;99.90;;;;;;5072401;28;20070;-69
2022/10/20 02:43:30;;;;;;;6.88;4.45;;;7.90;99.90;;;;;;5073452;28;20040;-69
2022/10/20 02:45:56;;;;;;;5.63;3.95;;;7.90;99.90;;;;;;5073321;28;20044;-69
2022/10/20 02:48:21;;;;;;;4.72;3.35;;;7.90;99.90;;;;;;5073555;28;20037;-69
2022/10/20 02:50:47;;;;;;;8.45;4.05;;;7.90;99.90;;;;;;5073636;28;20067;-69
2022/10/20 02:53:12;;;;;;;4.90;3.70;;;7.90;99.90;;;;;;5072082;28;20040;-69
2022/10/20 02:55:38;;;;;;;6.85;4.50;;;8.00;99.90;;;;;;5073284;28;20036;-69
2022/10/20 02:58:04;;;;;;;7.25;4.47;;;7.90;99.90;;;;;;5073593;28;20127;-69
2022/10/20 03:00:30;;;;;;;11.25;4.60;;;7.90;99.90;;;;;;5073012;28;20041;-69
2022/10/20 03:02:56;;;;;;;10.52;4.40;;;7.90;99.90;;;;;;5072733;28;20052;-69
2022/10/20 03:05:22;;;;;;;4.70;3.70;;;7.90;99.90;;;;;;5072842;28;20405;-69
2022/10/20 03:07:47;;;;;;;8.35;4.40;;;7.90;99.90;;;;;;5073148;28;20039;-69
2022/10/20 03:10:13;;;;;;;5.20;4.38;;;7.80;99.90;;;;;;5073080;28;20063;-69
2022/10/20 03:12:38;;;;;;;8.75;4.25;;;7.80;99.90;;;;;;5072932;28;20036;-69
2022/10/20 03:15:04;;;;;;;5.95;4.53;;;7.80;99.90;;;;;;5072709;28;20044;-69
2022/10/20 03:17:30;;;;;;;8.63;5.28;;;7.80;99.90;;;;;;5073080;28;20040;-69
2022/10/20 03:19:55;;;;;;;5.40;4.10;;;7.80;99.90;;;;;;5072908;28;20043;-69
2022/10/20 03:22:21;;;;;;;6.50;5.18;;;7.80;99.90;;;;;;5072888;28;20040;-69
2022/10/20 03:24:46;;;;;;;8.77;5.32;;;7.80;99.90;;;;;;5072703;28;20036;-69
2022/10/20 03:27:13;;;;;;;8.02;4.93;;;7.80;99.90;;;;;;5071481;28;20036;-69
2022/10/20 03:29:38;;;;;;;9.52;5.07;;;7.80;99.90;;;;;;5072799;28;20041;-69
2022/10/20 03:32:04;;;;;;;8.23;5.45;;;7.80;99.90;;;;;;5072926;28;20086;-69
2022/10/20 03:34:29;;;;;;;9.10;4.88;;;7.80;99.90;;;;;;5072660;28;20136;-69
2022/10/20 03:36:55;;;;;;;12.07;5.07;;;7.80;99.90;;;;;;5072590;28;20463;-69
2022/10/20 03:39:20;;;;;;;10.20;5.00;;;7.80;99.90;;;;;;5072872;28;20496;-69
2022/10/20 03:41:46;;;;;;;10.25;5.00;;;7.80;99.90;;;;;;5072634;28;20040;-69
2022/10/20 03:44:12;;;;;;;10.18;5.72;;;7.80;99.90;;;;;;5070972;28;20079;-69
2022/10/20 03:46:37;;;;;;;10.32;5.60;;;7.80;99.90;;;;;;5072588;28;20050;-69
2022/10/20 03:49:03;;;;;;;9.63;6.18;;;7.80;99.90;;;;;;5072674;28;20052;-68
2022/10/20 03:51:28;;;;;;;11.82;5.80;;;7.70;99.90;;;;;;5072171;28;20124;-69
2022/10/20 03:53:54;;;;;;;9.10;5.70;;;7.80;99.90;;;;;;5054095;28;20044;-69
2022/10/20 03:56:20;;;;;;;10.48;5.70;;;7.60;99.90;;;;;;5072484;28;20091;-69
2022/10/20 03:58:46;;;;;;;8.95;5.50;;;7.70;99.90;;;;;;5072088;28;20059;-69
2022/10/20 04:01:17;;;;;;;9.07;6.10;;;7.70;99.90;;;;;;5072264;28;20041;-69
2022/10/20 04:03:43;;;;;;;11.65;5.85;;;7.70;99.90;;;;;;5071817;28;20051;-69
2022/10/20 04:06:11;;;;;;;8.25;6.05;;;7.70;99.90;;;;;;5071936;28;20052;-69
2022/10/20 04:08:37;;;;;;;10.43;5.97;;;7.60;99.90;;;;;;5070768;28;20093;-69
2022/10/20 04:11:03;;;;;;;7.25;5.93;;;7.60;99.90;;;;;;5072277;28;20119;-69
2022/10/20 04:13:29;;;;;;;9.02;6.03;;;7.70;99.90;;;;;;5071616;28;20028;-69
2022/10/20 04:15:54;;;;;;;10.15;6.25;;;7.50;99.90;;;;;;5087358;28;20044;-69
2022/10/20 04:18:20;;;;;;;10.15;6.75;;;7.60;99.90;;;;;;5071827;28;20051;-69
2022/10/20 04:20:47;;;;;;;10.63;6.30;;;7.60;99.90;;;;;;5071884;28;20041;-69
2022/10/20 04:23:13;;;;;;;11.63;7.10;;;7.60;99.90;;;;;;5070610;28;20040;-69
2022/10/20 04:25:44;;;;;;;10.20;7.85;;;7.70;99.90;;;;;;5070157;28;20534;-69
2022/10/20 04:28:10;;;;;;;12.45;6.93;;;7.70;99.90;;;;;;5070483;28;20033;-69
2022/10/20 04:30:38;;;;;;;9.32;6.57;;;7.70;99.90;;;;;;5071659;28;20094;-69
2022/10/20 04:33:03;;;;;;;10.02;6.90;;;7.60;99.90;;;;;;5071879;28;20037;-69
2022/10/20 04:35:29;;;;;;;9.48;6.95;;;7.60;99.90;;;;;;5071192;28;20041;-69
2022/10/20 04:37:54;;;;;;;14.48;7.13;;;7.50;99.90;;;;;;5070415;28;20036;-69
2022/10/20 04:40:20;;;;;;;11.10;7.25;;;7.60;99.90;;;;;;5071583;28;20071;-69
2022/10/20 04:42:45;;;;;;;14.02;7.40;;;7.60;99.90;;;;;;5070537;28;20040;-69
2022/10/20 04:45:11;;;;;;;9.95;6.93;;;7.70;99.90;;;;;;5071624;28;20074;-69
2022/10/20 04:47:36;;;;;;;12.65;6.95;;;7.60;99.90;;;;;;5070466;28;20036;-69
2022/10/20 04:50:03;;;;;;;15.10;7.10;;;7.60;99.90;;;;;;5071876;28;20033;-69
2022/10/20 04:52:28;;;;;;;11.95;6.97;;;7.70;99.90;;;;;;5071182;28;20040;-69
2022/10/20 04:54:54;;;;;;;13.18;7.60;;;7.70;99.90;;;;;;5069948;28;20051;-69
2022/10/20 04:57:20;;;;;;;14.95;7.38;;;7.70;99.90;;;;;;5070036;28;20052;-69
2022/10/20 04:59:45;;;;;;;11.25;7.07;;;7.70;99.90;;;;;;5071495;28;20036;-69
2022/10/20 05:02:11;;;;;;;10.35;6.68;;;7.60;99.90;;;;;;5070010;28;20042;-69
2022/10/20 05:04:36;;;;;;;11.48;7.18;;;7.50;99.90;;;;;;5071136;28;20040;-69
2022/10/20 05:07:02;;;;;;;10.95;7.35;;;7.70;99.90;;;;;;5071025;28;20040;-69
2022/10/20 05:09:28;;;;;;;13.57;7.90;;;7.60;99.90;;;;;;5071375;28;20029;-69
2022/10/20 05:11:53;;;;;;;13.73;8.05;;;7.60;99.90;;;;;;5053641;28;20098;-69
2022/10/20 05:14:19;;;;;;;13.30;8.48;;;7.60;99.90;;;;;;5069723;28;20057;-69
2022/10/20 05:16:44;;;;;;;14.73;7.97;;;7.60;99.90;;;;;;5069973;28;20114;-69
2022/10/20 05:19:10;;;;;;;11.18;7.18;;;7.70;99.90;;;;;;5071258;28;20138;-69
2022/10/20 05:21:36;;;;;;;12.10;8.52;;;7.60;99.90;;;;;;5071490;28;20048;-69
2022/10/20 05:24:04;;;;;;;14.82;7.78;;;7.70;99.90;;;;;;5069580;28;20045;-69
2022/10/20 05:26:33;;;;;;;12.52;8.35;;;7.60;99.90;;;;;;5075020;28;20036;-69
2022/10/20 05:29:01;;;;;;;20.67;8.10;;;7.60;99.90;;;;;;5073776;28;20039;-69
2022/10/20 05:31:27;;;;;;;11.18;7.70;;;7.50;99.90;;;;;;5074010;28;20052;-69
2022/10/20 05:33:54;;;;;;;13.90;8.55;;;7.50;99.90;;;;;;5073338;28;20702;-70
2022/10/20 05:36:22;;;;;;;12.90;8.63;;;7.60;99.90;;;;;;5073637;28;20048;-69
2022/10/20 05:38:51;;;;;;;11.38;7.72;;;7.50;99.90;;;;;;5057247;28;20385;-69
2022/10/20 05:41:18;;;;;;;13.00;8.52;;;7.50;99.90;;;;;;5073735;28;20048;-69
2022/10/20 05:43:48;;;;;;;11.48;8.13;;;7.50;99.90;;;;;;5074524;28;20052;-69
2022/10/20 05:46:14;;;;;;;16.73;8.18;;;7.50;99.90;;;;;;5074724;28;20040;-69
2022/10/20 05:48:39;;;;;;;11.65;7.93;;;7.60;99.90;;;;;;5074387;28;20041;-69
2022/10/20 05:51:14;;;;;;;16.48;8.73;;;7.50;99.90;;;;;;5071782;28;20028;-68
2022/10/20 05:53:39;;;;;;;11.30;8.10;;;7.60;99.90;;;;;;5071655;28;20041;-69
2022/10/20 05:56:07;;;;;;;14.40;8.30;;;7.50;99.90;;;;;;5071214;28;20046;-69
2022/10/20 05:58:33;;;;;;;12.45;8.63;;;7.40;99.90;;;;;;5070824;28;20045;-68
2022/10/20 06:01:06;;;;;;;11.32;8.43;;;7.50;99.90;;;;;;5073564;28;20085;-69
2022/10/20 06:03:32;;;;;;;10.93;8.63;;;7.50;99.90;;;;;;5070856;28;20382;-69
2022/10/20 06:05:58;;;;;;;15.75;9.20;;;7.50;99.90;;;;;;5069437;28;20040;-68
2022/10/20 06:08:24;;;;;;;14.40;8.50;;;7.50;99.90;;;;;;5071421;28;20443;-68
2022/10/20 06:10:50;;;;;;;13.65;8.60;;;7.50;99.90;;;;;;5072222;28;20037;-69
2022/10/20 06:13:15;;;;;;;11.23;8.68;;;7.50;99.90;;;;;;5073462;28;20044;-68
2022/10/20 06:15:41;;;;;;;11.98;8.50;;;7.40;99.90;;;;;;5073044;28;20044;-68
2022/10/20 06:18:06;;;;;;;17.58;9.25;;;7.40;99.90;;;;;;5074123;28;20128;-68
2022/10/20 06:20:32;;;;;;;12.75;9.02;;;7.40;99.90;;;;;;5074203;28;20040;-68
2022/10/20 06:22:57;;;;;;;11.82;8.80;;;7.40;99.90;;;;;;5074221;28;20033;-68
2022/10/20 06:25:23;;;;;;;16.00;8.90;;;7.40;99.90;;;;;;5073647;28;20044;-68
2022/10/20 06:27:48;;;;;;;16.25;8.90;;;7.50;99.90;;;;;;5074171;28;20037;-68
2022/10/20 06:30:14;;;;;;;19.08;10.18;;;7.50;99.90;;;;;;5074116;28;20043;-68
2022/10/20 06:32:39;;;;;;;14.00;8.68;;;7.40;99.90;;;;;;5074188;28;20044;-68
2022/10/20 06:35:05;;;;;;;15.57;9.43;;;7.40;99.90;;;;;;5072182;28;20054;-68
2022/10/20 06:37:31;;;;;;;15.98;9.68;;;7.40;99.90;;;;;;5072490;28;20127;-68
2022/10/20 06:39:57;;;;;;;14.25;9.00;;;7.50;99.90;;;;;;5072426;28;20083;-68
2022/10/20 06:42:22;;;;;;;13.50;8.68;;;7.50;99.90;;;;;;5072589;28;20438;-68
2022/10/20 06:44:48;;;;;;;20.58;9.40;;;7.50;99.90;;;;;;5073393;28;20091;-68
2022/10/20 06:47:13;;;;;;;15.05;8.63;;;7.50;99.90;;;;;;5072502;28;20115;-68
2022/10/20 06:49:39;;;;;;;18.27;9.55;;;7.50;99.90;;;;;;5072621;28;20052;-68
2022/10/20 06:52:04;;;;;;;19.55;9.75;;;7.50;99.90;;;;;;5073543;28;20040;-68
2022/10/20 06:54:30;;;;;;;14.60;9.85;;;7.50;99.90;;;;;;5072986;28;20032;-68
2022/10/20 06:56:56;;;;;;;16.08;9.02;;;7.50;99.90;;;;;;5073621;28;20074;-67
2022/10/20 06:59:21;;;;;;;12.80;9.10;;;7.50;99.90;;;;;;5073633;28;20040;-68
2022/10/20 07:01:47;;;;;;;14.07;8.98;;;7.70;99.90;;;;;;5073488;28;20177;-68
2022/10/20 07:04:14;;;;;;;13.52;9.55;;;7.50;99.90;;;;;;5072871;28;20047;-68
2022/10/20 07:06:42;;;;;;;12.13;8.70;;;7.70;99.90;;;;;;5073185;28;20059;-68
2022/10/20 07:09:12;;;;;;;17.40;9.88;;;7.70;99.90;;;;;;5072933;28;20119;-68
2022/10/20 07:11:38;;;;;;;15.85;9.25;;;7.60;99.90;;;;;;5063828;28;20484;-68
2022/10/20 07:14:04;;;;;;;14.05;9.00;;;7.70;99.90;;;;;;5066562;28;20050;-68
2022/10/20 07:16:32;;;;;;;20.85;9.43;;;7.60;99.90;;;;;;5072965;28;20095;-68
2022/10/20 07:18:59;;;;;;;16.20;9.93;;;7.70;99.90;;;;;;5072779;28;20396;-68
2022/10/20 07:21:26;;;;;;;16.77;9.55;;;7.60;99.90;;;;;;5071656;28;20089;-68
2022/10/20 07:23:54;;;;;;;15.25;9.13;;;7.70;99.90;;;;;;5072683;28;20121;-68
2022/10/20 07:26:26;;;;;;;16.10;9.48;;;7.60;99.90;;;;;;5072454;28;20070;-68
2022/10/20 07:28:54;;;;;;;16.33;9.70;;;7.70;99.90;;;;;;5072497;28;20082;-68
2022/10/20 07:31:23;;;;;;;18.20;9.77;;;7.80;99.90;;;;;;5072239;28;20067;-68
2022/10/20 07:33:49;;;;;;;15.18;9.38;;;7.80;99.90;;;;;;5072008;28;20051;-70
2022/10/20 07:36:22;;;;;;;19.10;9.45;;;7.80;99.90;;;;;;5072167;28;20493;-69
2022/10/20 07:38:48;;;;;;;14.50;9.70;;;7.90;99.90;;;;;;5071319;28;20044;-68
2022/10/20 07:41:14;;;;;;;20.45;9.55;;;8.00;99.90;;;;;;5066604;28;20044;-69
2022/10/20 07:43:40;;;;;;;12.65;8.60;;;7.90;99.90;;;;;;5071124;28;20139;-69
2022/10/20 07:46:06;;;;;;;16.00;9.25;;;7.90;99.90;;;;;;5057994;28;20044;-68
2022/10/20 07:48:32;;;;;;;15.77;9.18;;;7.90;99.90;;;;;;5053567;28;20040;-69
2022/10/20 07:51:16;;;;;;;14.88;9.48;;;7.90;99.90;;;;;;5071937;28;20036;-68
2022/10/20 07:53:42;;;;;;;15.65;8.65;;;8.00;99.90;;;;;;5071863;28;20040;-68
2022/10/20 07:56:07;;;;;;;15.05;9.05;;;8.00;99.90;;;;;;5070711;28;20040;-68
2022/10/20 07:58:33;;;;;;;12.00;8.65;;;8.00;99.90;;;;;;5070914;28;20067;-68
2022/10/20 08:00:59;;;;;;;15.90;9.30;;;8.10;99.90;;;;;;5070750;28;20458;-73
2022/10/20 08:03:24;;;;;;;13.20;8.38;;;8.10;99.90;;;;;;5070729;28;20717;-68
2022/10/20 08:05:50;;;;;;;12.43;8.02;;;8.10;99.90;;;;;;5071830;28;20033;-68
2022/10/20 08:08:15;;;;;;;11.73;8.68;;;8.20;99.90;;;;;;5071751;28;20115;-67
2022/10/20 08:10:41;;;;;;;20.70;8.73;;;8.30;99.90;;;;;;5072349;28;20037;-68
2022/10/20 08:13:06;;;;;;;13.88;9.07;;;8.30;99.90;;;;;;5071792;28;20047;-68
2022/10/20 08:15:32;;;;;;;16.48;10.00;;;8.30;99.90;;;;;;5070384;28;20040;-68
2022/10/20 08:17:57;;;;;;;13.45;8.82;;;8.40;99.90;;;;;;5072089;28;20043;-68
2022/10/20 08:20:23;;;;;;;13.40;8.70;;;8.40;99.90;;;;;;5071920;28;20111;-68
2022/10/20 08:22:48;;;;;;;13.43;8.43;;;8.50;99.90;;;;;;5071584;28;20032;-68
2022/10/20 08:25:14;;;;;;;14.52;8.63;;;8.50;99.90;;;;;;5070234;28;20043;-67
2022/10/20 08:27:40;;;;;;;12.35;8.90;;;8.50;99.90;;;;;;5071893;28;20040;-68
2022/10/20 08:30:06;;;;;;;13.07;8.73;;;8.60;99.90;;;;;;5071883;28;20040;-68
2022/10/20 08:32:32;;;;;;;16.08;8.70;;;8.60;99.90;;;;;;5053784;28;20040;-68
2022/10/20 08:34:57;;;;;;;11.35;8.77;;;8.60;99.90;;;;;;5070172;28;20412;-68
2022/10/20 08:37:23;;;;;;;11.52;8.52;;;8.70;99.90;;;;;;5071822;28;20040;-68
2022/10/20 08:39:48;;;;;;;16.50;8.40;;;8.80;99.90;;;;;;5071842;28;20450;-68
2022/10/20 08:42:15;;;;;;;14.10;8.50;;;8.80;99.90;;;;;;5071561;28;20090;-68
2022/10/20 08:44:44;;;;;;;12.35;8.02;;;8.90;99.90;;;;;;5071298;28;20084;-67
2022/10/20 08:47:35;;;;;;;11.85;8.88;;;8.90;99.90;;;;;;5071621;28;20036;-67
2022/10/20 08:50:03;;;;;;;15.20;8.73;;;9.00;99.90;;;;;;5068631;28;20584;-68
2022/10/20 08:52:29;;;;;;;12.10;8.13;;;9.10;99.90;;;;;;5071836;28;20166;-68
2022/10/20 08:54:56;;;;;;;11.85;8.70;;;9.20;99.90;;;;;;5071293;28;20080;-68
2022/10/20 08:57:24;;;;;;;14.32;8.30;;;9.20;99.90;;;;;;5071594;28;20044;-68
2022/10/20 08:59:53;;;;;;;13.00;7.75;;;9.20;99.90;;;;;;5072709;28;20600;-68
2022/10/20 09:02:19;;;;;;;11.00;7.55;;;9.30;99.90;;;;;;5074496;28;20438;-68
2022/10/20 09:05:03;;;;;;;17.92;8.70;;;9.30;99.90;;;;;;5073815;28;20044;-68
2022/10/20 09:07:39;;;;;;;10.43;7.40;;;9.40;99.90;;;;;;5074275;28;20044;-68
2022/10/20 09:10:35;;;;;;;12.32;7.78;;;9.50;99.90;;;;;;5073949;28;20040;-70
2022/10/20 09:13:16;;;;;;;14.05;8.18;;;9.50;99.90;;;;;;5073903;28;20036;-68
2022/10/20 09:15:42;;;;;;;13.85;7.43;;;9.50;99.90;;;;;;5074909;28;20040;-68
2022/10/20 09:18:10;;;;;;;11.75;6.68;;;9.50;99.90;;;;;;5074189;28;20059;-68
2022/10/20 09:20:52;;;;;;;15.07;8.02;;;9.50;99.90;;;;;;5072266;28;20044;-68
2022/10/20 09:23:23;;;;;;;13.60;7.25;;;9.60;99.90;;;;;;5064509;28;20401;-68
2022/10/20 09:25:51;;;;;;;13.13;8.18;;;9.70;99.90;;;;;;5065646;28;20455;-68
2022/10/20 09:28:22;;;;;;;16.77;8.43;;;9.70;99.90;;;;;;5071697;28;20044;-68
2022/10/20 09:30:48;;;;;;;10.57;7.32;;;9.70;99.90;;;;;;5073706;28;20033;-68
2022/10/20 09:33:21;;;;;;;12.00;8.18;;;9.80;99.90;;;;;;5073215;28;20111;-68
2022/10/20 09:35:47;;;;;;;10.55;7.35;;;9.80;99.90;;;;;;5072174;28;20392;-68
2022/10/20 09:38:21;;;;;;;11.07;7.60;;;9.90;99.90;;;;;;5074314;28;20668;-68
2022/10/20 09:41:07;;;;;;;12.77;7.55;;;9.90;99.90;;;;;;5069875;28;20043;-68
2022/10/20 09:43:32;;;;;;;11.35;7.50;;;10.00;99.90;;;;;;5074389;28;20091;-68
2022/10/20 09:46:03;;;;;;;11.98;7.50;;;10.10;99.90;;;;;;5072338;28;20516;-68
2022/10/20 09:48:35;;;;;;;14.63;7.47;;;10.10;99.90;;;;;;5074135;28;20147;-70
2022/10/20 09:51:01;;;;;;;14.80;8.25;;;10.20;99.90;;;;;;5073203;28;20037;-71
2022/10/20 09:53:44;;;;;;;9.35;7.50;;;10.30;99.90;;;;;;5073233;28;20040;-70
2022/10/20 09:56:09;;;;;;;9.60;7.20;;;10.40;99.90;;;;;;5073129;28;20056;-70
2022/10/20 09:58:37;;;;;;;10.40;7.93;;;10.40;99.90;;;;;;5073160;28;20045;-70
2022/10/20 10:01:13;;;;;;;7.53;6.38;;;10.40;99.90;;;;;;5073307;28;20047;-70
2022/10/20 10:03:42;;;;;;;10.20;7.68;;;10.50;99.90;;;;;;5074369;28;20083;-70
2022/10/20 10:06:28;;;;;;;12.18;7.05;;;10.60;99.90;;;;;;5074077;28;20510;-70
2022/10/20 10:08:55;;;;;;;12.88;6.97;;;10.60;99.90;;;;;;5060376;28;20041;-68
2022/10/20 10:11:33;;;;;;;15.15;7.82;;;10.70;99.90;;;;;;5053964;28;20066;-68
2022/10/20 10:14:00;;;;;;;10.45;7.38;;;10.80;99.90;;;;;;5053980;28;20048;-68
2022/10/20 10:16:27;;;;;;;10.07;7.05;;;10.90;99.90;;;;;;5054190;28;20709;-68
2022/10/20 10:19:01;;;;;;;14.50;8.05;;;11.10;99.90;;;;;;5053951;28;20045;-68
2022/10/20 10:21:47;;;;;;;9.65;7.13;;;11.10;99.90;;;;;;5053963;28;20045;-68
2022/10/20 10:24:47;;;;;;;11.70;6.70;;;11.20;99.90;;;;;;5053790;28;20596;-68
2022/10/20 10:27:31;;;;;;;8.98;7.10;;;11.30;99.90;;;;;;5053824;28;20486;-68
2022/10/20 10:30:33;;;;;;;8.75;7.10;;;11.30;99.90;;;;;;5053909;28;20033;-68
2022/10/20 10:32:58;;;;;;;11.43;6.97;;;11.40;99.90;;;;;;5052278;28;20127;-68
2022/10/20 10:35:38;;;;;;;13.10;7.28;;;11.40;99.90;;;;;;5052146;28;20184;-68
2022/10/20 10:38:05;;;;;;;15.45;7.10;;;11.40;99.90;;;;;;5063447;28;20374;-68
2022/10/20 10:40:52;;;;;;;12.13;7.40;;;11.50;99.90;;;;;;5073686;28;20536;-68
2022/10/20 10:43:47;;;;;;;10.15;6.68;;;11.60;99.90;;;;;;5073054;28;20048;-68
2022/10/20 10:46:19;;;;;;;10.73;7.15;;;11.70;99.90;;;;;;5073059;28;20123;-68
2022/10/20 10:49:06;;;;;;;10.90;7.00;;;11.80;99.90;;;;;;5067195;28;20071;-68
2022/10/20 10:51:53;;;;;;;10.98;6.85;;;11.80;99.90;;;;;;5073557;28;20481;-71
2022/10/20 10:54:25;;;;;;;9.90;5.15;;;11.80;99.90;;;;;;5072062;28;20048;-67
2022/10/20 10:56:58;;;;;;;11.40;7.20;;;12.00;99.90;;;;;;5073500;28;20045;-68
2022/10/20 10:59:35;;;;;;;9.07;6.22;;;12.00;99.90;;;;;;5072210;28;20127;-67
2022/10/20 11:02:22;;;;;;;10.65;7.10;;;12.00;99.90;;;;;;5073713;28;20045;-68
2022/10/20 11:05:32;;;;;;;9.85;7.13;;;12.10;99.90;;;;;;5072903;28;20037;-68
2022/10/20 11:08:20;;;;;;;8.57;6.78;;;12.20;99.90;;;;;;5050948;28;20063;-68
2022/10/20 11:11:08;;;;;;;11.30;7.55;;;12.30;99.90;;;;;;5034362;28;20493;-67
2022/10/20 11:14:08;;;;;;;11.77;6.55;;;12.20;99.90;;;;;;5067801;28;20087;-68
2022/10/20 11:16:48;;;;;;;10.27;6.50;;;12.30;99.90;;;;;;5073309;28;20063;-67
2022/10/20 11:19:16;;;;;;;10.93;7.40;;;12.30;99.90;;;;;;5073193;28;20115;-68
2022/10/20 11:22:20;;;;;;;8.88;6.93;;;12.30;99.90;;;;;;5071286;28;20489;-68
2022/10/20 11:24:45;;;;;;;18.45;7.63;;;12.30;99.90;;;;;;5067866;28;20052;-67
2022/10/20 11:27:25;;;;;;;13.63;6.70;;;12.40;99.90;;;;;;5073009;28;20477;-68
2022/10/20 11:30:03;;;;;;;10.70;6.85;;;12.30;99.90;;;;;;5073177;28;20036;-67
2022/10/20 11:32:36;;;;;;;16.27;6.47;;;12.30;99.90;;;;;;5072665;28;20512;-67
2022/10/20 11:35:29;;;;;;;10.52;7.30;;;12.40;99.90;;;;;;5072527;28;20037;-68
2022/10/20 11:38:13;;;;;;;;;;;12.40;99.90;;;;;;5073222;28;20048;-68
2022/10/20 11:40:43;;;;;;;9.80;6.40;;;12.50;99.90;;;;;;5071436;28;19970;-67
2022/10/20 11:43:38;;;;;;;10.68;6.53;;;12.50;99.90;;;;;;5072579;28;20136;-69
2022/10/20 11:46:07;;;;;;;8.82;6.63;;;12.50;99.90;;;;;;5069256;28;20053;-68
2022/10/20 11:48:53;;;;;;;12.00;7.20;;;12.50;99.90;;;;;;5071441;28;20044;-69
2022/10/20 11:51:31;;;;;;;12.77;7.32;;;12.50;99.90;;;;;;5072737;28;20098;-69
2022/10/20 11:54:18;;;;;;;12.27;7.30;;;12.50;99.90;;;;;;5072029;28;20048;-69
2022/10/20 11:57:14;;;;;;;10.32;6.90;;;12.50;99.90;;;;;;5072468;28;20051;-69
2022/10/20 11:59:47;;;;;;;9.90;6.68;;;12.60;99.90;;;;;;5072281;28;20069;-69
2022/10/20 12:02:24;;;;;;;11.30;7.10;;;12.60;99.90;;;;;;5072427;28;20048;-69
2022/10/20 12:04:50;;;;;;;12.32;7.68;;;12.50;99.90;;;;;;5071928;28;20078;-68
2022/10/20 12:07:48;;;;;;;15.15;7.00;;;12.50;99.90;;;;;;5072268;28;20484;-69
2022/10/20 12:10:32;;;;;;;10.95;6.63;;;12.50;99.90;;;;;;5072414;28;20041;-68
2022/10/20 12:13:06;;;;;;;12.52;6.90;;;12.50;99.90;;;;;;5071999;28;20047;-68
2022/10/20 12:15:32;;;;;;;10.60;6.95;;;12.50;99.90;;;;;;5070736;28;20511;-68
2022/10/20 12:18:04;;;;;;;11.07;7.13;;;12.50;99.90;;;;;;5071059;28;20152;-68
2022/10/20 12:20:29;;;;;;;11.48;7.72;;;12.50;99.90;;;;;;5070600;28;20150;-67
2022/10/20 12:23:00;;;;;;;10.35;7.53;;;12.50;99.90;;;;;;5058335;28;20032;-68
2022/10/20 12:25:26;;;;;;;10.55;7.35;;;12.50;99.90;;;;;;5063812;28;20413;-68
2022/10/20 12:28:21;;;;;;;8.93;7.00;;;12.50;99.90;;;;;;5051143;28;20044;-68
2022/10/20 12:31:02;;;;;;;9.35;6.90;;;12.50;99.90;;;;;;5049796;28;20091;-68
2022/10/20 12:33:37;;;;;;;13.43;7.70;;;12.40;99.90;;;;;;5051188;28;20095;-68
2022/10/20 12:36:15;;;;;;;11.40;8.05;;;12.40;99.90;;;;;;5050430;28;20447;-68
2022/10/20 12:38:43;;;;;;;12.82;6.85;;;12.40;99.90;;;;;;5050695;28;20547;-68
2022/10/20 12:41:22;;;;;;;12.52;8.00;;;12.40;99.90;;;;;;5050632;28;20052;-68
2022/10/20 12:43:52;;;;;;;11.35;7.25;;;12.30;99.90;;;;;;5049305;28;20045;-68
2022/10/20 12:46:26;;;;;;;9.45;7.38;;;12.30;99.90;;;;;;5051055;28;20041;-68
2022/10/20 12:48:58;;;;;;;9.70;7.50;;;12.30;99.90;;;;;;5051114;28;20044;-68
2022/10/20 12:51:37;;;;;;;12.77;7.50;;;12.30;99.90;;;;;;5051036;28;20124;-68
2022/10/20 12:54:34;;;;;;;14.48;8.35;;;12.30;99.90;;;;;;5050674;28;20037;-68
2022/10/20 12:57:28;;;;;;;14.55;8.65;;;12.30;99.90;;;;;;5064603;28;20051;-69
2022/10/20 12:59:54;;;;;;;12.85;8.05;;;12.30;99.90;;;;;;5058720;28;20045;-69
2022/10/20 13:02:23;;;;;;;11.77;7.63;;;12.30;99.90;;;;;;5062114;28;20045;-69
2022/10/20 13:05:05;;;;;;;12.55;8.15;;;12.30;99.90;;;;;;5070829;28;20112;-69
2022/10/20 13:07:45;;;;;;;12.23;8.57;;;12.30;99.90;;;;;;5069454;28;20068;-69
2022/10/20 13:10:29;;;;;;;13.77;7.85;;;12.30;99.90;;;;;;5070811;28;20051;-70